createdAt,value
2022-11-29T00:00:52.550Z,100139.06
2022-11-29T00:05:57.077Z,100139.23
2022-11-29T00:11:12.545Z,100136.47
2022-11-29T00:16:15.882Z,100135.58
2022-11-29T00:21:19.335Z,100137.13
2022-11-29T00:26:24.884Z,100138.37
2022-11-29T00:31:31.155Z,100131.93
2022-11-29T00:36:35.214Z,100130.58
2022-11-29T00:41:39.139Z,100124.41
2022-11-29T00:46:41.975Z,100120.46
2022-11-29T00:51:46.134Z,100125.16
2022-11-29T00:56:50.455Z,100124.77
2022-11-29T01:01:53.461Z,100123.61
2022-11-29T01:06:56.463Z,100114.60
2022-11-29T01:11:59.479Z,100111.40
2022-11-29T01:17:02.569Z,100108.85
2022-11-29T01:22:06.045Z,100103.89
2022-11-29T01:27:10.080Z,100098.60
2022-11-29T01:32:12.908Z,100101.49
2022-11-29T01:37:15.973Z,100107.64
2022-11-29T01:42:18.973Z,100111.41
2022-11-29T01:47:21.977Z,100107.88
2022-11-29T01:52:31.288Z,100102.41
2022-11-29T01:57:36.946Z,100100.88
2022-11-29T02:02:55.819Z,100098.19
2022-11-29T02:08:00.462Z,100098.38
2022-11-29T02:13:51.753Z,100100.36
2022-11-29T02:19:31.475Z,100097.66
2022-11-29T02:25:04.960Z,100091.69
2022-11-29T02:30:53.967Z,100094.60
2022-11-29T02:36:24.133Z,100097.36
2022-11-29T02:42:04.975Z,100098.90
2022-11-29T02:47:43.575Z,100099.90
2022-11-29T02:53:24.897Z,100101.55
2022-11-29T02:59:01.611Z,100106.14
2022-11-29T03:04:31.463Z,100108.75
2022-11-29T03:09:58.889Z,100111.65
2022-11-29T03:15:23.233Z,100114.70
2022-11-29T03:20:51.557Z,100118.27
2022-11-29T03:26:13.494Z,100110.80
2022-11-29T03:31:30.285Z,100116.08
2022-11-29T03:36:42.762Z,100115.04
2022-11-29T03:42:00.925Z,100112.83
2022-11-29T03:47:09.383Z,100117.13
2022-11-29T03:52:32.996Z,100123.61
2022-11-29T03:58:00.805Z,100125.29
2022-11-29T04:03:28.614Z,100127.67
2022-11-29T04:09:05.247Z,100131.39
2022-11-29T04:14:50.377Z,100136.63
2022-11-29T04:20:38.812Z,100139.67
2022-11-29T04:26:42.491Z,100143.96
2022-11-29T04:32:27.308Z,100151.83
2022-11-29T04:38:20.723Z,100155.59
2022-11-29T04:44:04.993Z,100157.98
2022-11-29T04:49:46.361Z,100162.91
2022-11-29T04:55:20.798Z,100167.66
2022-11-29T05:00:31.653Z,100169.71
2022-11-29T05:06:00.727Z,100170.37
2022-11-29T05:11:32.588Z,100176.21
2022-11-29T05:17:14.152Z,100178.95
2022-11-29T05:22:41.675Z,100186.14
2022-11-29T05:28:31.140Z,100196.58
2022-11-29T05:34:20.956Z,100203.04
2022-11-29T05:40:08.892Z,100204.58
2022-11-29T05:45:23.464Z,100205.73
2022-11-29T05:51:21.230Z,100211.66
2022-11-29T05:57:01.587Z,100218.33
2022-11-29T06:02:27.613Z,100222.77
2022-11-29T06:07:44.898Z,100225.00
2022-11-29T06:13:22.979Z,100228.92
2022-11-29T06:19:17.297Z,100230.09
2022-11-29T06:24:29.937Z,100232.02
2022-11-29T06:30:04.245Z,100235.96
2022-11-29T06:35:48.156Z,100247.93
2022-11-29T06:40:54.932Z,100250.13
2022-11-29T06:46:29.448Z,100254.91
2022-11-29T06:52:08.087Z,100256.48
2022-11-29T06:57:40.365Z,100265.19
2022-11-29T07:03:08.587Z,100269.45
2022-11-29T07:08:21.830Z,100271.99
2022-11-29T07:13:25.215Z,100276.64
2022-11-29T07:18:51.529Z,100284.67
2022-11-29T07:24:22.732Z,100284.51
2022-11-29T07:29:35.032Z,100288.93
2022-11-29T07:34:48.793Z,100283.63
2022-11-29T07:40:11.734Z,100287.38
2022-11-29T07:45:39.627Z,100289.80
2022-11-29T07:50:43.417Z,100299.52
2022-11-29T07:55:47.990Z,100300.85
2022-11-29T08:00:51.078Z,100298.46
2022-11-29T08:05:54.140Z,100302.75
2022-11-29T08:10:57.142Z,100302.92
2022-11-29T08:16:00.229Z,100306.32
2022-11-29T08:21:09.390Z,100309.55
2022-11-29T08:26:12.494Z,100314.34
2022-11-29T08:31:15.540Z,100315.05
2022-11-29T08:36:20.847Z,100316.77
2022-11-29T08:41:24.369Z,100313.71
2022-11-29T08:46:47.316Z,100315.41
2022-11-29T08:52:15.702Z,100312.15
2022-11-29T08:57:46.751Z,100307.33
2022-11-29T09:02:41.770Z,100303.04
2022-11-29T09:07:46.528Z,100300.13
2022-11-29T09:12:51.474Z,100300.82
2022-11-29T09:17:54.487Z,100300.83
2022-11-29T09:22:59.419Z,100301.17
2022-11-29T09:28:03.330Z,100304.41
2022-11-29T09:33:06.146Z,100299.11
2022-11-29T09:38:12.879Z,100301.50
2022-11-29T09:43:29.092Z,100302.71
2022-11-29T09:49:15.898Z,100306.14
2022-11-29T09:54:36.151Z,100305.80
2022-11-29T09:59:45.898Z,100307.85
2022-11-29T10:04:56.259Z,100310.91
2022-11-29T10:10:23.043Z,100303.20
2022-11-29T10:15:37.809Z,100308.46
2022-11-29T10:20:48.775Z,100304.20
2022-11-29T10:25:57.912Z,100301.98
2022-11-29T10:31:28.799Z,100301.41
2022-11-29T10:36:45.492Z,100301.55
2022-11-29T10:41:56.983Z,100309.08
2022-11-29T10:47:10.506Z,100309.42
2022-11-29T10:52:20.417Z,100307.00
2022-11-29T10:57:24.088Z,100305.44
2022-11-29T11:02:28.147Z,100303.71
2022-11-29T11:07:36.426Z,100303.70
2022-11-29T11:12:39.539Z,100308.80
2022-11-29T11:18:01.400Z,100310.14
2022-11-29T11:23:08.114Z,100310.81
2022-11-29T11:28:20.623Z,100312.05
2022-11-29T11:33:29.617Z,100314.98
2022-11-29T11:39:09.425Z,100314.29
2022-11-29T11:44:52.287Z,100313.91
2022-11-29T11:50:04.386Z,100315.52
2022-11-29T11:55:43.388Z,100317.55
2022-11-29T12:01:13.947Z,100323.02
2022-11-29T12:06:28.941Z,100323.68
2022-11-29T12:11:53.425Z,100324.70
2022-11-29T12:17:08.346Z,100321.82
2022-11-29T12:22:22.003Z,100324.94
2022-11-29T12:27:24.955Z,100335.54
2022-11-29T12:33:13.475Z,100338.45
2022-11-29T12:38:35.670Z,100342.59
2022-11-29T12:44:39.419Z,100342.54
2022-11-29T12:50:10.181Z,100341.52
2022-11-29T12:55:38.316Z,100344.77
2022-11-29T13:01:18.161Z,100347.84
2022-11-29T13:06:49.942Z,100355.06
2022-11-29T13:12:03.855Z,100354.09
2022-11-29T13:17:53.790Z,100354.27
2022-11-29T13:23:38.982Z,100353.43
2022-11-29T13:28:48.399Z,100357.68
2022-11-29T13:34:27.614Z,100356.98
2022-11-29T13:40:14.221Z,100362.98
2022-11-29T13:45:26.004Z,100367.78
2022-11-29T13:50:44.659Z,100375.95
2022-11-29T13:55:50.826Z,100381.39
2022-11-29T14:01:01.228Z,100383.40
2022-11-29T14:06:27.335Z,100389.02
2022-11-29T14:11:37.524Z,100391.05
2022-11-29T14:17:05.377Z,100391.09
2022-11-29T14:22:21.833Z,100391.98
2022-11-29T14:27:24.803Z,100391.98
2022-11-29T14:32:30.838Z,100391.30
2022-11-29T14:38:29.219Z,100394.55
2022-11-29T14:43:38.506Z,100400.02
2022-11-29T14:48:56.871Z,100404.46
2022-11-29T14:54:06.654Z,100402.73
2022-11-29T14:59:45.948Z,100399.97
2022-11-29T15:04:52.353Z,100402.01
2022-11-29T15:10:01.352Z,100403.56
2022-11-29T15:15:44.976Z,100403.73
2022-11-29T15:21:12.925Z,100403.77
2022-11-29T15:26:22.228Z,100403.77
2022-11-29T15:31:25.315Z,100407.52
2022-11-29T15:36:29.208Z,100410.08
2022-11-29T15:41:35.729Z,100414.01
2022-11-29T15:46:38.786Z,100413.86
2022-11-29T15:51:42.286Z,100416.95
2022-11-29T15:57:03.679Z,100419.15
2022-11-29T16:02:23.296Z,100416.75
2022-11-29T16:07:32.793Z,100417.29
2022-11-29T16:12:35.851Z,100418.66
2022-11-29T16:17:39.062Z,100420.08
2022-11-29T16:22:42.562Z,100420.92
2022-11-29T16:27:46.478Z,100424.19
2022-11-29T16:33:03.536Z,100430.00
2022-11-29T16:38:20.096Z,100433.41
2022-11-29T16:43:43.636Z,100439.05
2022-11-29T16:48:47.083Z,100443.16
2022-11-29T16:53:52.184Z,100442.80
2022-11-29T16:59:25.385Z,100445.89
2022-11-29T17:04:26.629Z,100447.77
2022-11-29T17:09:34.512Z,100452.53
2022-11-29T17:14:37.526Z,100452.35
2022-11-29T17:19:40.517Z,100451.67
2022-11-29T17:24:48.301Z,100455.27
2022-11-29T17:29:51.702Z,100453.23
2022-11-29T17:34:54.820Z,100461.27
2022-11-29T17:39:57.900Z,100462.95
2022-11-29T17:45:00.921Z,100464.65
2022-11-29T17:50:04.373Z,100469.45
2022-11-29T17:55:08.267Z,100466.05
2022-11-29T18:00:13.552Z,100472.18
2022-11-29T18:05:17.595Z,100472.18
2022-11-29T18:10:20.412Z,100468.42
2022-11-29T18:15:24.006Z,100469.63
2022-11-29T18:20:26.989Z,100471.69
2022-11-29T18:25:38.626Z,100469.96
2022-11-29T18:30:42.895Z,100470.98
2022-11-29T18:35:46.658Z,100471.67
2022-11-29T18:40:50.028Z,100467.42
2022-11-29T18:45:53.123Z,100468.60
2022-11-29T18:51:01.879Z,100467.59
2022-11-29T18:56:13.743Z,100477.15
2022-11-29T19:01:19.612Z,100477.30
2022-11-29T19:06:38.546Z,100473.22
2022-11-29T19:11:43.068Z,100480.23
2022-11-29T19:16:48.625Z,100481.23
2022-11-29T19:21:51.665Z,100485.00
2022-11-29T19:26:57.656Z,100485.86
2022-11-29T19:32:00.635Z,100491.99
2022-11-29T19:37:03.616Z,100496.59
2022-11-29T19:42:06.650Z,100494.90
2022-11-29T19:47:09.634Z,100498.80
2022-11-29T19:52:12.644Z,100499.67
2022-11-29T19:57:15.728Z,100504.46
2022-11-29T20:02:18.871Z,100504.63
2022-11-29T20:07:22.082Z,100508.55
2022-11-29T20:12:25.137Z,100513.17
2022-11-29T20:17:28.107Z,100516.06
2022-11-29T20:22:31.081Z,100517.95
2022-11-29T20:27:34.148Z,100517.77
2022-11-29T20:32:37.431Z,100518.79
2022-11-29T20:37:49.674Z,100518.10
2022-11-29T20:43:36.101Z,100522.55
2022-11-29T20:48:39.442Z,100519.97
2022-11-29T20:53:47.130Z,100525.61
2022-11-29T20:58:50.163Z,100522.52
2022-11-29T21:03:53.816Z,100519.47
2022-11-29T21:08:56.861Z,100518.27
2022-11-29T21:14:04.020Z,100524.58
2022-11-29T21:19:07.506Z,100528.52
2022-11-29T21:24:55.616Z,100528.86
2022-11-29T21:29:59.369Z,100529.73
2022-11-29T21:35:02.379Z,100531.95
2022-11-29T21:40:07.744Z,100536.20
2022-11-29T21:45:15.121Z,100538.26
2022-11-29T21:50:19.106Z,100539.63
2022-11-29T21:55:22.122Z,100530.41
2022-11-29T22:00:25.290Z,100533.32
2022-11-29T22:05:28.279Z,100534.00
2022-11-29T22:10:32.473Z,100530.77
2022-11-29T22:15:35.587Z,100532.64
2022-11-29T22:20:38.603Z,100534.17
2022-11-29T22:25:41.606Z,100534.17
2022-11-29T22:30:44.589Z,100543.55
2022-11-29T22:35:47.581Z,100542.02
2022-11-29T22:40:50.564Z,100533.99
2022-11-29T22:45:53.549Z,100534.67
2022-11-29T22:51:09.906Z,100535.87
2022-11-29T22:56:13.385Z,100532.63
2022-11-29T23:01:22.998Z,100529.55
2022-11-29T23:06:29.189Z,100528.18
2022-11-29T23:11:32.825Z,100522.38
2022-11-29T23:16:35.910Z,100515.20
2022-11-29T23:21:41.089Z,100512.44
2022-11-29T23:26:47.407Z,100514.83
2022-11-29T23:31:50.575Z,100517.41
2022-11-29T23:36:53.631Z,100518.10
2022-11-29T23:41:56.636Z,100523.23
2022-11-29T23:46:59.626Z,100525.96
2022-11-29T23:52:02.662Z,100521.33
2022-11-29T23:57:05.870Z,100515.19
